createdAt,value
2018-09-03T00:00:53.365Z,96329.98
2018-09-03T00:03:22.191Z,96329.70
2018-09-03T00:05:51.077Z,96329.16
2018-09-03T00:08:19.941Z,96333.48
2018-09-03T00:10:48.796Z,96329.17
2018-09-03T00:13:17.981Z,96333.21
2018-09-03T00:15:46.826Z,96334.60
2018-09-03T00:18:15.713Z,96336.22
2018-09-03T00:20:44.810Z,96329.17
2018-09-03T00:23:14.869Z,96332.41
2018-09-03T00:25:44.900Z,96334.33
2018-09-03T00:28:13.772Z,96332.41
2018-09-03T00:30:44.041Z,96334.83
2018-09-03T00:33:17.950Z,96333.20
2018-09-03T00:35:52.407Z,96335.89
2018-09-03T00:38:26.392Z,96337.78
2018-09-03T00:41:00.450Z,96339.67
2018-09-03T00:43:34.815Z,96338.86
2018-09-03T00:46:09.866Z,96337.25
2018-09-03T00:48:38.686Z,96328.90
2018-09-03T00:51:07.993Z,96329.44
2018-09-03T00:53:36.821Z,96320.54
2018-09-03T00:56:07.319Z,96319.98
2018-09-03T00:58:37.564Z,96318.64
2018-09-03T01:01:06.576Z,96322.15
2018-09-03T01:03:35.943Z,96316.78
2018-09-03T01:06:05.125Z,96314.08
2018-09-03T01:08:34.279Z,96306.81
2018-09-03T01:11:03.171Z,96310.84
2018-09-03T01:13:32.062Z,96310.84
2018-09-03T01:16:00.921Z,96312.46
2018-09-03T01:18:32.190Z,96314.61
2018-09-03T01:21:01.874Z,96316.77
2018-09-03T01:23:30.751Z,96313.27
2018-09-03T01:25:59.967Z,96310.84
2018-09-03T01:28:31.845Z,96316.50
2018-09-03T01:31:00.785Z,96301.42
2018-09-03T01:33:29.996Z,96308.70
2018-09-03T01:35:58.841Z,96302.55
2018-09-03T01:38:28.464Z,96307.62
2018-09-03T01:40:58.689Z,96300.36
2018-09-03T01:43:28.105Z,96300.66
2018-09-03T01:45:58.709Z,96287.97
2018-09-03T01:48:27.499Z,96291.77
2018-09-03T01:50:56.683Z,96290.16
2018-09-03T01:53:26.536Z,96291.47
2018-09-03T01:55:55.431Z,96298.47
2018-09-03T01:58:24.194Z,96295.23
2018-09-03T02:00:52.953Z,96290.65
2018-09-03T02:03:22.786Z,96280.42
2018-09-03T02:05:52.102Z,96278.27
2018-09-03T02:08:20.980Z,96278.80
2018-09-03T02:10:49.832Z,96276.36
2018-09-03T02:13:19.220Z,96274.20
2018-09-03T02:15:49.023Z,96276.09
2018-09-03T02:18:17.889Z,96272.05
2018-09-03T02:20:46.711Z,96268.00
2018-09-03T02:23:15.563Z,96258.84
2018-09-03T02:25:45.036Z,96258.84
2018-09-03T02:28:13.893Z,96260.47
2018-09-03T02:30:42.696Z,96259.66
2018-09-03T02:33:12.380Z,96256.14
2018-09-03T02:35:41.580Z,96254.26
2018-09-03T02:38:10.476Z,96254.80
2018-09-03T02:40:39.284Z,96247.80
2018-09-03T02:43:08.500Z,96243.22
2018-09-03T02:45:38.657Z,96231.64
2018-09-03T02:48:07.571Z,96236.22
2018-09-03T02:50:36.617Z,96235.95
2018-09-03T02:53:05.457Z,96221.67
2018-09-03T02:55:34.247Z,96218.16
2018-09-03T02:58:03.175Z,96212.77
2018-09-03T03:00:33.373Z,96209.22
2018-09-03T03:03:02.273Z,96210.02
2018-09-03T03:05:31.604Z,96210.02
2018-09-03T03:08:00.493Z,96202.22
2018-09-03T03:10:29.328Z,96201.99
2018-09-03T03:12:58.189Z,96202.80
2018-09-03T03:15:28.145Z,96209.53
2018-09-03T03:17:58.366Z,96200.38
2018-09-03T03:20:28.188Z,96204.98
2018-09-03T03:22:57.041Z,96193.14
2018-09-03T03:25:25.921Z,96200.70
2018-09-03T03:27:55.294Z,96186.48
2018-09-03T03:30:24.254Z,96177.88
2018-09-03T03:32:53.137Z,96176.83
2018-09-03T03:35:21.998Z,96180.60
2018-09-03T03:37:51.181Z,96183.59
2018-09-03T03:40:20.420Z,96176.09
2018-09-03T03:42:49.256Z,96175.28
2018-09-03T03:45:19.270Z,96161.59
2018-09-03T03:47:55.656Z,96167.78
2018-09-03T03:50:25.111Z,96173.72
2018-09-03T03:52:55.436Z,96178.05
2018-09-03T03:55:25.389Z,96183.69
2018-09-03T03:57:54.234Z,96191.48
2018-09-03T04:00:23.704Z,96191.75
2018-09-03T04:02:52.578Z,96185.28
2018-09-03T04:05:21.748Z,96173.92
2018-09-03T04:07:50.654Z,96170.15
2018-09-03T04:10:20.262Z,96167.17
2018-09-03T04:12:54.805Z,96168.53
2018-09-03T04:15:24.338Z,96172.84
2018-09-03T04:17:53.329Z,96175.22
2018-09-03T04:20:22.161Z,96165.80
2018-09-03T04:22:51.369Z,96162.28
2018-09-03T04:25:20.249Z,96156.09
2018-09-03T04:27:50.303Z,96165.23
2018-09-03T04:30:19.783Z,96168.71
2018-09-03T04:32:48.645Z,96173.02
2018-09-03T04:35:17.611Z,96179.96
2018-09-03T04:37:47.096Z,96180.50
2018-09-03T04:40:16.053Z,96174.03
2018-09-03T04:42:46.816Z,96171.05
2018-09-03T04:45:16.521Z,96165.95
2018-09-03T04:47:45.732Z,96169.98
2018-09-03T04:50:15.059Z,96152.22
2018-09-03T04:52:45.692Z,96162.71
2018-09-03T04:55:14.730Z,96169.98
2018-09-03T04:57:43.662Z,96158.13
2018-09-03T05:00:25.017Z,96157.61
2018-09-03T05:03:05.272Z,96168.92
2018-09-03T05:05:34.295Z,96161.11
2018-09-03T05:08:03.539Z,96153.28
2018-09-03T05:10:32.462Z,96156.58
2018-09-03T05:13:02.507Z,96165.42
2018-09-03T05:15:31.419Z,96171.88
2018-09-03T05:18:00.815Z,96168.10
2018-09-03T05:20:29.716Z,96172.14
2018-09-03T05:22:59.989Z,96179.68
2018-09-03T05:25:29.463Z,96189.91
2018-09-03T05:27:59.037Z,96195.84
2018-09-03T05:30:28.212Z,96195.86
2018-09-03T05:32:57.071Z,96208.78
2018-09-03T05:35:25.918Z,96195.86
2018-09-03T05:37:54.809Z,96169.47
2018-09-03T05:40:23.977Z,96173.77
2018-09-03T05:42:52.864Z,96168.36
2018-09-03T05:45:21.690Z,96178.86
2018-09-03T05:47:50.600Z,96195.80
2018-09-03T05:50:19.860Z,96197.64
2018-09-03T05:52:48.834Z,96191.97
2018-09-03T05:55:18.919Z,96200.04
2018-09-03T05:57:47.833Z,96202.99
2018-09-03T06:00:16.725Z,96194.91
2018-09-03T06:02:45.638Z,96197.06
2018-09-03T06:05:18.601Z,96191.39
2018-09-03T06:07:48.016Z,96187.35
2018-09-03T06:10:17.827Z,96187.09
2018-09-03T06:12:46.738Z,96190.54
2018-09-03T06:15:16.289Z,96196.99
2018-09-03T06:17:45.823Z,96190.00
2018-09-03T06:20:15.320Z,96184.85
2018-09-03T06:22:44.441Z,96192.91
2018-09-03T06:25:14.870Z,96191.83
2018-09-03T06:27:43.836Z,96190.97
2018-09-03T06:30:13.518Z,96193.92
2018-09-03T06:32:42.382Z,96194.70
2018-09-03T06:35:12.162Z,96187.69
2018-09-03T06:37:42.516Z,96189.84
2018-09-03T06:40:12.414Z,96201.41
2018-09-03T06:42:41.252Z,96197.36
2018-09-03T06:45:10.396Z,96194.67
2018-09-03T06:47:39.319Z,96180.13
2018-09-03T06:50:10.492Z,96184.72
2018-09-03T06:52:42.576Z,96183.91
2018-09-03T06:55:12.569Z,96183.37
2018-09-03T06:57:43.039Z,96187.36
2018-09-03T07:00:13.040Z,96184.38
2018-09-03T07:02:43.404Z,96188.68
2018-09-03T07:05:12.727Z,96183.81
2018-09-03T07:07:42.054Z,96180.84
2018-09-03T07:10:11.415Z,96183.79
2018-09-03T07:12:42.285Z,96189.13
2018-09-03T07:15:11.238Z,96190.19
2018-09-03T07:17:41.288Z,96185.94
2018-09-03T07:20:10.083Z,96188.36
2018-09-03T07:22:39.400Z,96190.48
2018-09-03T07:25:08.224Z,96181.30
2018-09-03T07:27:37.088Z,96178.87
2018-09-03T07:30:06.341Z,96171.05
2018-09-03T07:32:36.648Z,96170.50
2018-09-03T07:35:05.603Z,96167.83
2018-09-03T07:37:35.211Z,96171.84
2018-09-03T07:40:06.267Z,96167.26
2018-09-03T07:42:41.413Z,96166.43
2018-09-03T07:45:10.349Z,96159.69
2018-09-03T07:47:40.587Z,96162.10
2018-09-03T07:50:09.493Z,96165.28
2018-09-03T07:52:38.334Z,96166.34
2018-09-03T07:55:07.402Z,96169.84
2018-09-03T07:57:36.220Z,96171.45
2018-09-03T08:00:06.169Z,96173.61
2018-09-03T08:02:37.264Z,96175.76
2018-09-03T08:05:06.471Z,96182.78
2018-09-03T08:07:35.802Z,96177.94
2018-09-03T08:10:07.762Z,96182.81
2018-09-03T08:12:36.651Z,96182.03
2018-09-03T08:15:05.706Z,96184.73
2018-09-03T08:17:34.566Z,96182.81
2018-09-03T08:20:04.205Z,96191.47
2018-09-03T08:22:34.323Z,96189.31
2018-09-03T08:25:03.926Z,96191.20
2018-09-03T08:27:32.744Z,96184.21
2018-09-03T08:30:02.484Z,96190.69
2018-09-03T08:32:31.898Z,96183.17
2018-09-03T08:35:04.762Z,96176.44
2018-09-03T08:37:35.796Z,96184.23
2018-09-03T08:42:42.345Z,96186.36
2018-09-03T08:45:11.221Z,96188.52
2018-09-03T08:47:42.101Z,96180.09
2018-09-03T08:50:14.160Z,96184.16
2018-09-03T08:52:47.265Z,96180.38
2018-09-03T08:55:17.803Z,96174.44
2018-09-03T08:57:47.572Z,96172.80
2018-09-03T09:00:18.161Z,96168.48
2018-09-03T09:02:48.144Z,96174.39
2018-09-03T09:05:19.223Z,96172.44
2018-09-03T09:07:52.086Z,96163.58
2018-09-03T09:10:21.805Z,96164.04
2018-09-03T09:12:51.898Z,96167.52
2018-09-03T09:15:21.507Z,96166.69
2018-09-03T09:17:50.349Z,96161.23
2018-09-03T09:20:19.704Z,96164.45
2018-09-03T09:22:48.822Z,96159.86
2018-09-03T09:25:18.863Z,96154.47
2018-09-03T09:27:47.763Z,96160.37
2018-09-03T09:30:17.718Z,96167.86
2018-09-03T09:32:48.012Z,96167.86
2018-09-03T09:35:17.908Z,96171.62
2018-09-03T09:37:48.125Z,96166.52
2018-09-03T09:40:18.157Z,96164.34
2018-09-03T09:42:51.575Z,96163.53
2018-09-03T09:45:20.548Z,96160.83
2018-09-03T09:47:51.261Z,96166.20
2018-09-03T09:50:21.481Z,96165.94
2018-09-03T09:52:52.937Z,96166.46
2018-09-03T09:55:23.954Z,96164.83
2018-09-03T09:57:53.196Z,96156.45
2018-09-03T10:00:27.661Z,96155.38
2018-09-03T10:02:57.148Z,96152.08
2018-09-03T10:05:27.996Z,96145.34
2018-09-03T10:08:00.118Z,96146.41
2018-09-03T10:10:28.969Z,96128.58
2018-09-03T10:12:58.207Z,96132.08
2018-09-03T10:15:27.219Z,96132.59
2018-09-03T10:17:57.360Z,96140.98
2018-09-03T10:20:27.740Z,96139.63
2018-09-03T10:22:57.568Z,96127.46
2018-09-03T10:25:27.138Z,96132.80
2018-09-03T10:27:57.075Z,96137.32
2018-09-03T10:30:25.960Z,96133.18
2018-09-03T10:32:56.477Z,96132.89
2018-09-03T10:35:26.885Z,96135.02
2018-09-03T10:37:57.044Z,96136.55
2018-09-03T10:40:26.084Z,96138.97
2018-09-03T10:42:56.403Z,96141.89
2018-09-03T10:45:26.573Z,96128.81
2018-09-03T10:47:57.244Z,96129.61
2018-09-03T10:50:26.842Z,96130.28
2018-09-03T10:52:56.226Z,96133.75
2018-09-03T10:55:25.215Z,96129.34
2018-09-03T10:57:57.197Z,96123.10
2018-09-03T11:00:26.354Z,96120.87
2018-09-03T11:02:57.041Z,96115.66
2018-09-03T11:05:27.301Z,96116.72
2018-09-03T11:07:56.797Z,96118.84
2018-09-03T11:10:25.632Z,96117.38
2018-09-03T11:12:54.860Z,96112.70
2018-09-03T11:15:25.189Z,96114.23
2018-09-03T11:17:54.348Z,96115.05
2018-09-03T11:20:28.304Z,96116.17
2018-09-03T11:22:57.658Z,96112.96
2018-09-03T11:25:27.863Z,96127.02
2018-09-03T11:27:57.862Z,96117.85
2018-09-03T11:30:28.934Z,96118.44
2018-09-03T11:33:00.217Z,96113.04
2018-09-03T11:35:30.818Z,96115.55
2018-09-03T11:38:01.584Z,96120.41
2018-09-03T11:40:31.166Z,96119.53
2018-09-03T11:43:01.280Z,96112.48
2018-09-03T11:45:31.357Z,96116.83
2018-09-03T11:48:00.954Z,96121.14
2018-09-03T11:50:29.809Z,96115.99
2018-09-03T11:53:01.681Z,96113.40
2018-09-03T11:55:30.535Z,96121.80
2018-09-03T11:58:00.271Z,96119.79
2018-09-03T12:00:33.382Z,96118.51
2018-09-03T12:03:03.365Z,96112.78
2018-09-03T12:06:36.225Z,96116.50
2018-09-03T12:09:08.829Z,96115.37
2018-09-03T12:11:38.312Z,96118.00
2018-09-03T12:14:13.208Z,96115.47
2018-09-03T12:16:42.171Z,96107.36
2018-09-03T12:19:11.513Z,96108.20
2018-09-03T12:21:40.971Z,96107.88
2018-09-03T12:24:09.855Z,96104.63
2018-09-03T12:26:38.650Z,96105.00
2018-09-03T12:29:10.499Z,96108.80
2018-09-03T12:31:40.352Z,96108.19
2018-09-03T12:34:10.865Z,96106.25
2018-09-03T12:36:41.635Z,96104.03
2018-09-03T12:39:11.310Z,96103.02
2018-09-03T12:41:40.539Z,96101.92
2018-09-03T12:44:09.993Z,96103.88
2018-09-03T12:46:40.823Z,96099.41
2018-09-03T12:49:09.681Z,96104.17
2018-09-03T12:51:40.744Z,96110.14
2018-09-03T12:54:09.659Z,96107.06
2018-09-03T12:56:40.028Z,96105.22
2018-09-03T12:59:08.813Z,96103.12
2018-09-03T13:01:38.624Z,96099.80
2018-09-03T13:04:10.524Z,96102.70
2018-09-03T13:06:40.673Z,96100.70
2018-09-03T13:09:10.301Z,96107.42
2018-09-03T13:11:39.168Z,96106.72
2018-09-03T13:14:09.515Z,96108.63
2018-09-03T13:16:38.417Z,96103.77
2018-09-03T13:19:09.516Z,96099.33
2018-09-03T13:21:38.324Z,96102.27
2018-09-03T13:24:09.552Z,96103.16
2018-09-03T13:26:41.331Z,96098.87
2018-09-03T13:29:14.020Z,96103.68
2018-09-03T13:31:43.032Z,96099.05
2018-09-03T13:34:12.593Z,96096.66
2018-09-03T13:36:43.688Z,96099.92
2018-09-03T13:39:14.501Z,96097.13
2018-09-03T13:41:45.389Z,96101.65
2018-09-03T13:44:14.206Z,96094.66
2018-09-03T13:46:45.965Z,96094.17
2018-09-03T13:49:14.788Z,96083.39
2018-09-03T13:51:43.645Z,96075.31
2018-09-03T13:54:12.798Z,96073.27
2018-09-03T13:56:41.638Z,96074.34
2018-09-03T13:59:10.462Z,96075.41
2018-09-03T14:01:40.456Z,96063.77
2018-09-03T14:04:11.640Z,96066.48
2018-09-03T14:06:40.465Z,96067.28
2018-09-03T14:09:10.020Z,96066.17
2018-09-03T14:11:38.954Z,96062.19
2018-09-03T14:14:10.334Z,96069.84
2018-09-03T14:16:40.534Z,96069.95
2018-09-03T14:19:09.435Z,96064.84
2018-09-03T14:21:38.306Z,96057.33
2018-09-03T14:24:08.283Z,96059.48
2018-09-03T14:26:37.820Z,96057.56
2018-09-03T14:29:08.836Z,96058.61
2018-09-03T14:31:40.769Z,96063.17
2018-09-03T14:34:09.664Z,96055.03
2018-09-03T14:36:40.441Z,96056.77
2018-09-03T14:39:13.139Z,96060.05
2018-09-03T14:41:41.920Z,96060.59
2018-09-03T14:44:13.520Z,96052.31
2018-09-03T14:46:43.358Z,96052.56
2018-09-03T14:49:12.311Z,96056.22
2018-09-03T14:51:43.714Z,96064.22
2018-09-03T14:54:15.172Z,96055.52
2018-09-03T14:56:45.659Z,96056.29
2018-09-03T14:59:14.998Z,96057.44
2018-09-03T15:01:44.385Z,96057.12
2018-09-03T15:04:14.609Z,96056.00
2018-09-03T15:06:48.483Z,96053.99
2018-09-03T15:09:20.023Z,96053.19
2018-09-03T15:11:49.539Z,96048.80
2018-09-03T15:14:19.312Z,96046.48
2018-09-03T15:16:48.460Z,96044.56
2018-09-03T15:19:17.750Z,96038.82
2018-09-03T15:21:50.384Z,96048.49
2018-09-03T15:24:20.736Z,96055.97
2018-09-03T15:26:52.004Z,96050.65
2018-09-03T15:29:21.740Z,96052.39
2018-09-03T15:31:54.641Z,96055.42
2018-09-03T15:34:23.531Z,96050.65
2018-09-03T15:36:52.456Z,96056.32
2018-09-03T15:39:23.496Z,96056.78
2018-09-03T15:41:53.458Z,96053.92
2018-09-03T15:44:25.241Z,96053.19
2018-09-03T15:46:54.432Z,96057.82
2018-09-03T15:49:23.908Z,96051.34
2018-09-03T15:51:55.407Z,96056.08
2018-09-03T15:54:24.764Z,96047.27
2018-09-03T15:59:31.428Z,96051.77
2018-09-03T16:02:03.432Z,96052.08
2018-09-03T16:04:34.406Z,96049.67
2018-09-03T16:07:03.204Z,96054.55
2018-09-03T16:09:33.314Z,96048.25
2018-09-03T16:12:04.387Z,96044.87
2018-09-03T16:14:33.276Z,96052.22
2018-09-03T16:17:02.158Z,96051.83
2018-09-03T16:19:31.329Z,96056.84
2018-09-03T16:22:00.684Z,96054.98
2018-09-03T16:24:29.509Z,96055.70
2018-09-03T16:27:01.407Z,96056.08
2018-09-03T16:29:30.303Z,96050.64
2018-09-03T16:31:59.404Z,96060.30
2018-09-03T16:34:30.441Z,96061.47
2018-09-03T16:36:59.319Z,96062.67
2018-09-03T16:39:30.134Z,96058.73
2018-09-03T16:41:59.327Z,96063.95
2018-09-03T16:44:29.492Z,96058.44
2018-09-03T16:46:59.199Z,96053.17
2018-09-03T16:49:29.798Z,96051.88
2018-09-03T16:52:01.079Z,96052.50
2018-09-03T16:54:36.092Z,96042.86
2018-09-03T16:57:05.813Z,96041.08
2018-09-03T16:59:35.830Z,96040.02
2018-09-03T17:02:04.657Z,96038.27
2018-09-03T17:04:34.561Z,96035.98
2018-09-03T17:07:04.192Z,96041.56
2018-09-03T17:09:34.209Z,96042.63
2018-09-03T17:12:04.679Z,96036.31
2018-09-03T17:14:34.118Z,96035.63
2018-09-03T17:17:04.066Z,96031.16
2018-09-03T17:19:35.316Z,96029.12
2018-09-03T17:22:04.474Z,96036.34
2018-09-03T17:24:36.304Z,96040.65
2018-09-03T17:27:09.364Z,96043.33
2018-09-03T17:29:39.409Z,96038.71
2018-09-03T17:32:09.579Z,96038.23
2018-09-03T17:34:39.793Z,96043.33
2018-09-03T17:37:09.675Z,96050.62
2018-09-03T17:39:40.373Z,96047.34
2018-09-03T17:42:09.220Z,96053.17
2018-09-03T17:44:40.436Z,96064.08
2018-09-03T17:47:10.815Z,96063.70
2018-09-03T17:49:39.842Z,96063.06
2018-09-03T17:52:11.569Z,96070.20
2018-09-03T17:54:40.648Z,96066.78
2018-09-03T17:57:10.396Z,96072.60
2018-09-03T17:59:40.314Z,96075.13
2018-09-03T18:02:09.340Z,96076.85
2018-09-03T18:04:39.303Z,96078.91
2018-09-03T18:07:09.537Z,96074.17
2018-09-03T18:09:41.700Z,96078.03
2018-09-03T18:12:10.714Z,96080.81
2018-09-03T18:14:41.814Z,96072.83
2018-09-03T18:17:11.552Z,96075.30
2018-09-03T18:19:42.666Z,96081.32
2018-09-03T18:22:13.632Z,96082.23
2018-09-03T18:24:42.546Z,96076.33
2018-09-03T18:27:11.976Z,96082.63
2018-09-03T18:29:41.659Z,96079.78
2018-09-03T18:32:11.314Z,96076.05
2018-09-03T18:34:40.429Z,96072.88
2018-09-03T18:37:12.672Z,96075.97
2018-09-03T18:39:44.412Z,96075.46
2018-09-03T18:42:15.600Z,96077.91
2018-09-03T18:44:45.217Z,96084.74
2018-09-03T18:47:14.184Z,96076.39
2018-09-03T18:49:44.789Z,96082.17
2018-09-03T18:52:14.381Z,96078.13
2018-09-03T18:54:44.331Z,96075.47
2018-09-03T18:57:13.158Z,96080.31
2018-09-03T18:59:43.199Z,96081.72
2018-09-03T19:02:12.800Z,96077.16
2018-09-03T19:04:41.777Z,96078.52
2018-09-03T19:07:16.560Z,96075.59
2018-09-03T19:09:46.403Z,96074.05
2018-09-03T19:12:17.533Z,96068.43
2018-09-03T19:14:47.825Z,96076.00
2018-09-03T19:17:19.356Z,96078.95
2018-09-03T19:19:49.679Z,96080.88
2018-09-03T19:22:19.170Z,96082.52
2018-09-03T19:24:56.695Z,96079.08
2018-09-03T19:27:26.417Z,96081.77
2018-09-03T19:29:56.981Z,96074.00
2018-09-03T19:32:29.076Z,96082.70
2018-09-03T19:34:59.446Z,96082.75
2018-09-03T19:37:31.422Z,96073.89
2018-09-03T19:40:02.148Z,96069.11
2018-09-03T19:42:31.836Z,96075.36
2018-09-03T19:45:00.697Z,96070.05
2018-09-03T19:47:30.113Z,96077.33
2018-09-03T19:49:59.744Z,96073.58
2018-09-03T19:52:28.546Z,96074.52
2018-09-03T19:55:00.293Z,96074.56
2018-09-03T19:57:30.291Z,96074.10
2018-09-03T20:00:00.569Z,96078.14
2018-09-03T20:02:33.672Z,96072.23
2018-09-03T20:05:04.457Z,96077.08
2018-09-03T20:07:34.722Z,96080.06
2018-09-03T20:10:04.855Z,96080.89
2018-09-03T20:12:33.729Z,96086.82
2018-09-03T20:15:05.002Z,96082.29
2018-09-03T20:17:33.808Z,96081.95
2018-09-03T20:20:03.657Z,96076.82
2018-09-03T20:22:33.388Z,96071.70
2018-09-03T20:25:03.460Z,96065.76
2018-09-03T20:27:33.669Z,96074.10
2018-09-03T20:30:03.069Z,96066.30
2018-09-03T20:32:35.462Z,96068.45
2018-09-03T20:35:05.770Z,96066.59
2018-09-03T20:37:36.089Z,96075.22
2018-09-03T20:40:07.803Z,96062.29
2018-09-03T20:42:39.372Z,96064.18
2018-09-03T20:45:09.918Z,96062.58
2018-09-03T20:47:40.768Z,96059.59
2018-09-03T20:52:50.714Z,96068.77
2018-09-03T20:55:20.682Z,96070.16
2018-09-03T20:57:51.604Z,96070.50
2018-09-03T21:00:22.501Z,96070.86
2018-09-03T21:02:54.241Z,96071.42
2018-09-03T21:05:23.708Z,96074.72
2018-09-03T21:07:53.193Z,96069.11
2018-09-03T21:10:24.503Z,96065.36
2018-09-03T21:12:53.610Z,96059.74
2018-09-03T21:15:22.509Z,96059.41
2018-09-03T21:17:51.375Z,96059.20
2018-09-03T21:20:20.552Z,96056.23
2018-09-03T21:22:49.412Z,96061.38
2018-09-03T21:25:18.872Z,96060.84
2018-09-03T21:27:48.796Z,96060.37
2018-09-03T21:30:17.632Z,96059.30
2018-09-03T21:32:47.812Z,96059.28
2018-09-03T21:35:16.666Z,96063.55
2018-09-03T21:37:46.589Z,96064.41
2018-09-03T21:40:15.422Z,96063.62
2018-09-03T21:42:45.344Z,96060.95
2018-09-03T21:45:14.235Z,96059.06
2018-09-03T21:47:43.075Z,96064.17
2018-09-03T21:50:14.529Z,96062.83
2018-09-03T21:52:43.351Z,96059.33
2018-09-03T21:55:13.776Z,96055.29
2018-09-03T21:57:42.627Z,96055.01
2018-09-03T22:00:12.114Z,96056.35
2018-09-03T22:02:41.599Z,96053.37
2018-09-03T22:05:10.440Z,96059.83
2018-09-03T22:07:39.347Z,96061.44
2018-09-03T22:10:08.146Z,96060.32
2018-09-03T22:12:37.316Z,96049.86
2018-09-03T22:15:07.430Z,96056.28
2018-09-03T22:17:36.700Z,96051.13
2018-09-03T22:20:06.901Z,96044.92
2018-09-03T22:22:35.761Z,96048.97
2018-09-03T22:25:04.628Z,96048.97
2018-09-03T22:27:33.535Z,96050.60
2018-09-03T22:30:02.436Z,96046.82
2018-09-03T22:32:31.370Z,96047.91
2018-09-03T22:35:00.670Z,96040.38
2018-09-03T22:37:29.551Z,96043.05
2018-09-03T22:39:59.138Z,96038.55
2018-09-03T22:42:28.328Z,96046.65
2018-09-03T22:44:58.147Z,96042.63
2018-09-03T22:47:27.879Z,96048.58
2018-09-03T22:49:56.712Z,96045.42
2018-09-03T22:52:25.590Z,96054.13
2018-09-03T22:54:54.480Z,96050.65
2018-09-03T22:57:23.617Z,96057.92
2018-09-03T22:59:53.441Z,96058.20
2018-09-03T23:02:22.905Z,96054.50
2018-09-03T23:04:51.757Z,96053.45
2018-09-03T23:07:21.079Z,96050.02
2018-09-03T23:09:51.536Z,96043.88
2018-09-03T23:12:20.429Z,96054.41
2018-09-03T23:14:49.300Z,96047.97
2018-09-03T23:17:18.148Z,96050.95
2018-09-03T23:19:47.020Z,96048.82
2018-09-03T23:22:16.417Z,96049.62
2018-09-03T23:24:45.872Z,96048.28
2018-09-03T23:27:14.687Z,96043.45
2018-09-03T23:29:43.860Z,96046.18
2018-09-03T23:32:12.780Z,96042.70
2018-09-03T23:34:42.265Z,96040.80
2018-09-03T23:37:11.069Z,96038.11
2018-09-03T23:39:39.941Z,96033.29
2018-09-03T23:42:08.775Z,96028.73
2018-09-03T23:44:38.132Z,96028.52
2018-09-03T23:47:07.840Z,96028.55
2018-09-03T23:49:36.666Z,96028.00
2018-09-03T23:52:08.685Z,96027.52
2018-09-03T23:54:38.092Z,96021.36
2018-09-03T23:57:10.628Z,96028.62
2018-09-03T23:59:39.496Z,96019.75
